Homeland, Florida
Current Conditions -  °F | °C
As of 8:47 AM on Sunday 21 Dec 2014 (Local Time) from KBOW Reporting Station
Broken Clouds Broken Clouds  
Wind Chill: 61°   Ceiling: 8000
Heat Index: 61°   Visibility: 7mi
Dew Point: 61°   Wind: 0mph
Humidity: 100%   Direction: NA
Pressure: 30.12"   Gusts: NA
Location:  27.82°N, 81.82°W
Report Text: KBOW 211347Z 00000KT 7SM BKN080 16/16 A3012
Loading
Personal Weather Stations






























Interactive Weather Map New forecast layout! Learn more

10-Day Weather Forecast

Advertisements
Track Severe Weather on mobile